sensor_id;sensor_type;location;lat;lon;timestamp;P1;durP1;ratioP1;P2;durP2;ratioP2
16822;SDS011;8528;49.976;11.858;2023-08-12T00:01:30;5.07;;;3.47;;
16822;SDS011;8528;49.976;11.858;2023-08-12T00:03:57;5.03;;;3.53;;
16822;SDS011;8528;49.976;11.858;2023-08-12T00:06:24;4.83;;;3.47;;
16822;SDS011;8528;49.976;11.858;2023-08-12T00:08:52;4.77;;;3.70;;
16822;SDS011;8528;49.976;11.858;2023-08-12T00:11:19;3.43;;;3.13;;
16822;SDS011;8528;49.976;11.858;2023-08-12T00:13:46;4.23;;;3.70;;
16822;SDS011;8528;49.976;11.858;2023-08-12T00:16:13;3.63;;;3.33;;
16822;SDS011;8528;49.976;11.858;2023-08-12T00:18:40;3.80;;;3.50;;
16822;SDS011;8528;49.976;11.858;2023-08-12T00:21:07;4.03;;;3.63;;
16822;SDS011;8528;49.976;11.858;2023-08-12T00:23:37;4.10;;;3.77;;
16822;SDS011;8528;49.976;11.858;2023-08-12T00:26:07;5.13;;;3.63;;
16822;SDS011;8528;49.976;11.858;2023-08-12T00:28:35;4.23;;;3.73;;
16822;SDS011;8528;49.976;11.858;2023-08-12T00:31:02;3.80;;;3.40;;
16822;SDS011;8528;49.976;11.858;2023-08-12T00:33:29;7.40;;;3.83;;
16822;SDS011;8528;49.976;11.858;2023-08-12T00:35:56;3.97;;;3.63;;
16822;SDS011;8528;49.976;11.858;2023-08-12T00:38:23;5.33;;;3.70;;
16822;SDS011;8528;49.976;11.858;2023-08-12T00:40:50;4.00;;;3.70;;
16822;SDS011;8528;49.976;11.858;2023-08-12T00:43:18;4.00;;;3.60;;
16822;SDS011;8528;49.976;11.858;2023-08-12T00:45:45;3.97;;;3.47;;
16822;SDS011;8528;49.976;11.858;2023-08-12T00:48:12;4.07;;;3.67;;
16822;SDS011;8528;49.976;11.858;2023-08-12T00:50:41;5.37;;;3.63;;
16822;SDS011;8528;49.976;11.858;2023-08-12T00:53:09;3.80;;;3.50;;
16822;SDS011;8528;49.976;11.858;2023-08-12T00:55:36;4.27;;;3.77;;
16822;SDS011;8528;49.976;11.858;2023-08-12T00:58:04;4.40;;;3.77;;
16822;SDS011;8528;49.976;11.858;2023-08-12T01:00:32;4.47;;;3.50;;
16822;SDS011;8528;49.976;11.858;2023-08-12T01:02:58;4.00;;;3.60;;
16822;SDS011;8528;49.976;11.858;2023-08-12T01:05:27;7.67;;;5.47;;
16822;SDS011;8528;49.976;11.858;2023-08-12T01:07:56;6.43;;;3.80;;
16822;SDS011;8528;49.976;11.858;2023-08-12T01:10:23;4.07;;;3.70;;
16822;SDS011;8528;49.976;11.858;2023-08-12T01:12:56;5.07;;;4.07;;
16822;SDS011;8528;49.976;11.858;2023-08-12T01:15:31;3.90;;;3.60;;
16822;SDS011;8528;49.976;11.858;2023-08-12T01:17:59;4.57;;;3.77;;
16822;SDS011;8528;49.976;11.858;2023-08-12T01:20:27;4.37;;;3.97;;
16822;SDS011;8528;49.976;11.858;2023-08-12T01:23:13;4.83;;;4.33;;
16822;SDS011;8528;49.976;11.858;2023-08-12T01:25:41;4.57;;;4.17;;
16822;SDS011;8528;49.976;11.858;2023-08-12T01:28:09;4.33;;;3.93;;
16822;SDS011;8528;49.976;11.858;2023-08-12T01:30:43;4.80;;;4.40;;
16822;SDS011;8528;49.976;11.858;2023-08-12T01:33:21;4.90;;;4.47;;
16822;SDS011;8528;49.976;11.858;2023-08-12T01:36:00;5.67;;;4.50;;
16822;SDS011;8528;49.976;11.858;2023-08-12T01:38:35;5.83;;;4.83;;
16822;SDS011;8528;49.976;11.858;2023-08-12T01:41:05;5.30;;;4.80;;
16822;SDS011;8528;49.976;11.858;2023-08-12T01:43:35;4.30;;;4.00;;
16822;SDS011;8528;49.976;11.858;2023-08-12T01:46:03;4.30;;;3.90;;
16822;SDS011;8528;49.976;11.858;2023-08-12T01:48:30;5.83;;;4.57;;
16822;SDS011;8528;49.976;11.858;2023-08-12T01:50:57;4.93;;;4.53;;
16822;SDS011;8528;49.976;11.858;2023-08-12T01:53:24;5.67;;;4.30;;
16822;SDS011;8528;49.976;11.858;2023-08-12T01:55:51;6.27;;;4.43;;
16822;SDS011;8528;49.976;11.858;2023-08-12T01:58:18;5.03;;;4.07;;
16822;SDS011;8528;49.976;11.858;2023-08-12T02:00:45;5.10;;;4.60;;
16822;SDS011;8528;49.976;11.858;2023-08-12T02:03:12;6.17;;;4.40;;
16822;SDS011;8528;49.976;11.858;2023-08-12T02:05:40;4.60;;;4.20;;
16822;SDS011;8528;49.976;11.858;2023-08-12T02:08:07;5.57;;;4.40;;
16822;SDS011;8528;49.976;11.858;2023-08-12T02:10:34;7.30;;;5.20;;
16822;SDS011;8528;49.976;11.858;2023-08-12T02:13:02;5.83;;;5.23;;
16822;SDS011;8528;49.976;11.858;2023-08-12T02:15:29;5.00;;;4.60;;
16822;SDS011;8528;49.976;11.858;2023-08-12T02:17:56;4.90;;;4.47;;
16822;SDS011;8528;49.976;11.858;2023-08-12T02:20:23;4.50;;;4.10;;
16822;SDS011;8528;49.976;11.858;2023-08-12T02:22:50;4.67;;;4.27;;
16822;SDS011;8528;49.976;11.858;2023-08-12T02:25:20;4.83;;;4.27;;
16822;SDS011;8528;49.976;11.858;2023-08-12T02:27:47;5.37;;;4.30;;
16822;SDS011;8528;49.976;11.858;2023-08-12T02:30:14;5.40;;;4.90;;
16822;SDS011;8528;49.976;11.858;2023-08-12T02:32:41;5.50;;;4.53;;
16822;SDS011;8528;49.976;11.858;2023-08-12T02:35:10;5.07;;;4.57;;
16822;SDS011;8528;49.976;11.858;2023-08-12T02:37:37;5.00;;;4.60;;
16822;SDS011;8528;49.976;11.858;2023-08-12T02:40:04;5.03;;;4.33;;
16822;SDS011;8528;49.976;11.858;2023-08-12T02:42:32;5.07;;;4.30;;
16822;SDS011;8528;49.976;11.858;2023-08-12T02:44:59;5.63;;;4.10;;
16822;SDS011;8528;49.976;11.858;2023-08-12T02:47:26;4.70;;;4.27;;
16822;SDS011;8528;49.976;11.858;2023-08-12T02:49:54;3.90;;;3.60;;
16822;SDS011;8528;49.976;11.858;2023-08-12T02:52:21;4.60;;;4.20;;
16822;SDS011;8528;49.976;11.858;2023-08-12T02:54:48;6.03;;;4.50;;
16822;SDS011;8528;49.976;11.858;2023-08-12T02:57:15;6.17;;;4.23;;
16822;SDS011;8528;49.976;11.858;2023-08-12T02:59:42;4.90;;;4.50;;
16822;SDS011;8528;49.976;11.858;2023-08-12T03:02:09;4.83;;;4.43;;
16822;SDS011;8528;49.976;11.858;2023-08-12T03:04:36;4.37;;;3.97;;
16822;SDS011;8528;49.976;11.858;2023-08-12T03:07:03;4.37;;;3.97;;
16822;SDS011;8528;49.976;11.858;2023-08-12T03:09:30;4.60;;;4.10;;
16822;SDS011;8528;49.976;11.858;2023-08-12T03:11:57;5.37;;;4.40;;
16822;SDS011;8528;49.976;11.858;2023-08-12T03:14:48;4.27;;;3.90;;
16822;SDS011;8528;49.976;11.858;2023-08-12T03:17:15;5.50;;;4.10;;
16822;SDS011;8528;49.976;11.858;2023-08-12T03:19:42;4.87;;;4.37;;
16822;SDS011;8528;49.976;11.858;2023-08-12T03:22:09;4.57;;;4.23;;
16822;SDS011;8528;49.976;11.858;2023-08-12T03:24:36;4.77;;;3.80;;
16822;SDS011;8528;49.976;11.858;2023-08-12T03:27:04;5.13;;;4.13;;
16822;SDS011;8528;49.976;11.858;2023-08-12T03:29:31;5.07;;;4.23;;
16822;SDS011;8528;49.976;11.858;2023-08-12T03:31:58;4.53;;;4.13;;
16822;SDS011;8528;49.976;11.858;2023-08-12T03:34:27;4.33;;;3.97;;
16822;SDS011;8528;49.976;11.858;2023-08-12T03:36:57;6.33;;;4.10;;
16822;SDS011;8528;49.976;11.858;2023-08-12T03:39:24;5.90;;;4.00;;
16822;SDS011;8528;49.976;11.858;2023-08-12T03:41:51;4.83;;;4.43;;
16822;SDS011;8528;49.976;11.858;2023-08-12T03:44:19;4.43;;;3.93;;
16822;SDS011;8528;49.976;11.858;2023-08-12T03:46:45;5.47;;;4.43;;
16822;SDS011;8528;49.976;11.858;2023-08-12T03:49:12;4.57;;;4.07;;
16822;SDS011;8528;49.976;11.858;2023-08-12T03:51:40;4.97;;;4.20;;
16822;SDS011;8528;49.976;11.858;2023-08-12T03:54:07;4.83;;;4.27;;
16822;SDS011;8528;49.976;11.858;2023-08-12T03:56:34;5.17;;;4.73;;
16822;SDS011;8528;49.976;11.858;2023-08-12T03:59:01;5.83;;;5.13;;
16822;SDS011;8528;49.976;11.858;2023-08-12T04:01:28;5.57;;;4.70;;
16822;SDS011;8528;49.976;11.858;2023-08-12T04:03:55;5.10;;;4.70;;
16822;SDS011;8528;49.976;11.858;2023-08-12T04:06:21;4.90;;;4.50;;
16822;SDS011;8528;49.976;11.858;2023-08-12T04:08:49;5.33;;;4.60;;
16822;SDS011;8528;49.976;11.858;2023-08-12T04:11:15;5.27;;;4.77;;
16822;SDS011;8528;49.976;11.858;2023-08-12T04:13:42;4.83;;;4.43;;
16822;SDS011;8528;49.976;11.858;2023-08-12T04:16:09;5.07;;;4.40;;
16822;SDS011;8528;49.976;11.858;2023-08-12T04:18:36;5.27;;;4.53;;
16822;SDS011;8528;49.976;11.858;2023-08-12T04:21:03;4.70;;;4.30;;
16822;SDS011;8528;49.976;11.858;2023-08-12T04:23:31;5.13;;;4.63;;
16822;SDS011;8528;49.976;11.858;2023-08-12T04:25:58;4.57;;;4.17;;
16822;SDS011;8528;49.976;11.858;2023-08-12T04:28:25;4.70;;;4.17;;
16822;SDS011;8528;49.976;11.858;2023-08-12T04:30:52;4.07;;;3.37;;
16822;SDS011;8528;49.976;11.858;2023-08-12T04:33:19;4.63;;;3.43;;
16822;SDS011;8528;49.976;11.858;2023-08-12T04:35:46;4.10;;;3.70;;
16822;SDS011;8528;49.976;11.858;2023-08-12T04:38:13;3.77;;;3.37;;
16822;SDS011;8528;49.976;11.858;2023-08-12T04:40:42;4.00;;;3.60;;
16822;SDS011;8528;49.976;11.858;2023-08-12T04:43:09;4.57;;;3.30;;
16822;SDS011;8528;49.976;11.858;2023-08-12T04:45:36;3.43;;;3.13;;
16822;SDS011;8528;49.976;11.858;2023-08-12T04:48:05;3.40;;;3.00;;
16822;SDS011;8528;49.976;11.858;2023-08-12T04:50:32;4.17;;;3.00;;
16822;SDS011;8528;49.976;11.858;2023-08-12T04:53:00;5.63;;;2.97;;
16822;SDS011;8528;49.976;11.858;2023-08-12T04:55:28;3.03;;;2.70;;
16822;SDS011;8528;49.976;11.858;2023-08-12T04:57:55;3.37;;;2.80;;
16822;SDS011;8528;49.976;11.858;2023-08-12T05:00:23;4.50;;;2.80;;
16822;SDS011;8528;49.976;11.858;2023-08-12T05:02:51;3.60;;;2.60;;
16822;SDS011;8528;49.976;11.858;2023-08-12T05:05:18;4.40;;;2.57;;
16822;SDS011;8528;49.976;11.858;2023-08-12T05:07:45;3.17;;;2.50;;
16822;SDS011;8528;49.976;11.858;2023-08-12T05:10:15;2.30;;;2.20;;
16822;SDS011;8528;49.976;11.858;2023-08-12T05:12:43;2.83;;;2.20;;
16822;SDS011;8528;49.976;11.858;2023-08-12T05:15:10;2.80;;;2.30;;
16822;SDS011;8528;49.976;11.858;2023-08-12T05:17:37;3.07;;;2.87;;
16822;SDS011;8528;49.976;11.858;2023-08-12T05:20:04;2.50;;;2.30;;
16822;SDS011;8528;49.976;11.858;2023-08-12T05:22:32;2.73;;;2.10;;
16822;SDS011;8528;49.976;11.858;2023-08-12T05:24:59;3.40;;;2.20;;
16822;SDS011;8528;49.976;11.858;2023-08-12T05:27:25;3.08;;;2.47;;
16822;SDS011;8528;49.976;11.858;2023-08-12T05:29:53;2.97;;;2.15;;
16822;SDS011;8528;49.976;11.858;2023-08-12T05:32:19;3.25;;;2.38;;
16822;SDS011;8528;49.976;11.858;2023-08-12T05:34:49;2.88;;;2.00;;
16822;SDS011;8528;49.976;11.858;2023-08-12T05:37:18;3.42;;;2.35;;
16822;SDS011;8528;49.976;11.858;2023-08-12T05:39:45;2.47;;;2.28;;
16822;SDS011;8528;49.976;11.858;2023-08-12T05:42:12;3.33;;;2.20;;
16822;SDS011;8528;49.976;11.858;2023-08-12T05:44:40;2.33;;;2.13;;
16822;SDS011;8528;49.976;11.858;2023-08-12T05:47:08;2.20;;;2.10;;
16822;SDS011;8528;49.976;11.858;2023-08-12T05:49:35;2.90;;;2.40;;
16822;SDS011;8528;49.976;11.858;2023-08-12T05:52:03;3.03;;;2.03;;
16822;SDS011;8528;49.976;11.858;2023-08-12T05:54:30;2.30;;;2.10;;
16822;SDS011;8528;49.976;11.858;2023-08-12T05:56:57;2.90;;;2.13;;
16822;SDS011;8528;49.976;11.858;2023-08-12T05:59:25;3.60;;;2.10;;
16822;SDS011;8528;49.976;11.858;2023-08-12T06:01:53;2.50;;;2.05;;
16822;SDS011;8528;49.976;11.858;2023-08-12T06:04:20;2.28;;;2.08;;
16822;SDS011;8528;49.976;11.858;2023-08-12T06:06:47;2.75;;;2.00;;
16822;SDS011;8528;49.976;11.858;2023-08-12T06:09:14;4.57;;;2.20;;
16822;SDS011;8528;49.976;11.858;2023-08-12T06:11:41;1.90;;;1.80;;
16822;SDS011;8528;49.976;11.858;2023-08-12T06:14:08;3.53;;;2.10;;
16822;SDS011;8528;49.976;11.858;2023-08-12T06:16:35;4.63;;;2.60;;
16822;SDS011;8528;49.976;11.858;2023-08-12T06:19:02;2.70;;;2.10;;
16822;SDS011;8528;49.976;11.858;2023-08-12T06:21:29;7.43;;;3.38;;
16822;SDS011;8528;49.976;11.858;2023-08-12T06:23:56;2.75;;;2.20;;
16822;SDS011;8528;49.976;11.858;2023-08-12T06:26:23;5.60;;;2.60;;
16822;SDS011;8528;49.976;11.858;2023-08-12T06:28:50;2.40;;;2.20;;
16822;SDS011;8528;49.976;11.858;2023-08-12T06:31:20;3.38;;;2.10;;
16822;SDS011;8528;49.976;11.858;2023-08-12T06:33:47;4.20;;;2.00;;
16822;SDS011;8528;49.976;11.858;2023-08-12T06:36:14;2.30;;;2.10;;
16822;SDS011;8528;49.976;11.858;2023-08-12T06:38:41;2.88;;;2.00;;
16822;SDS011;8528;49.976;11.858;2023-08-12T06:41:08;2.78;;;2.30;;
16822;SDS011;8528;49.976;11.858;2023-08-12T06:43:35;3.05;;;2.13;;
16822;SDS011;8528;49.976;11.858;2023-08-12T06:46:02;1.98;;;1.88;;
16822;SDS011;8528;49.976;11.858;2023-08-12T06:48:29;1.90;;;1.80;;
16822;SDS011;8528;49.976;11.858;2023-08-12T06:50:56;1.95;;;1.75;;
16822;SDS011;8528;49.976;11.858;2023-08-12T06:53:24;2.78;;;2.00;;
16822;SDS011;8528;49.976;11.858;2023-08-12T06:55:52;2.00;;;1.88;;
16822;SDS011;8528;49.976;11.858;2023-08-12T06:58:19;1.98;;;1.88;;
16822;SDS011;8528;49.976;11.858;2023-08-12T07:00:45;1.90;;;1.80;;
16822;SDS011;8528;49.976;11.858;2023-08-12T07:03:12;2.95;;;1.77;;
16822;SDS011;8528;49.976;11.858;2023-08-12T07:05:39;1.85;;;1.73;;
16822;SDS011;8528;49.976;11.858;2023-08-12T07:08:06;2.40;;;2.20;;
16822;SDS011;8528;49.976;11.858;2023-08-12T07:10:33;2.75;;;2.03;;
16822;SDS011;8528;49.976;11.858;2023-08-12T07:13:00;2.63;;;2.10;;
16822;SDS011;8528;49.976;11.858;2023-08-12T07:15:27;2.65;;;2.13;;
16822;SDS011;8528;49.976;11.858;2023-08-12T07:17:55;1.92;;;1.83;;
16822;SDS011;8528;49.976;11.858;2023-08-12T07:20:22;2.08;;;1.88;;
16822;SDS011;8528;49.976;11.858;2023-08-12T07:22:49;2.10;;;1.90;;
16822;SDS011;8528;49.976;11.858;2023-08-12T07:25:19;4.32;;;1.90;;
16822;SDS011;8528;49.976;11.858;2023-08-12T07:27:46;2.38;;;2.08;;
16822;SDS011;8528;49.976;11.858;2023-08-12T07:30:13;2.40;;;2.10;;
16822;SDS011;8528;49.976;11.858;2023-08-12T07:32:40;2.20;;;2.00;;
16822;SDS011;8528;49.976;11.858;2023-08-12T07:35:07;2.67;;;2.00;;
16822;SDS011;8528;49.976;11.858;2023-08-12T07:37:34;2.30;;;2.10;;
16822;SDS011;8528;49.976;11.858;2023-08-12T07:40:01;5.00;;;2.40;;
16822;SDS011;8528;49.976;11.858;2023-08-12T07:42:29;2.30;;;2.10;;
16822;SDS011;8528;49.976;11.858;2023-08-12T07:44:56;2.47;;;2.27;;
16822;SDS011;8528;49.976;11.858;2023-08-12T07:47:23;2.40;;;2.20;;
16822;SDS011;8528;49.976;11.858;2023-08-12T07:49:50;2.83;;;2.53;;
16822;SDS011;8528;49.976;11.858;2023-08-12T07:52:17;3.20;;;2.47;;
16822;SDS011;8528;49.976;11.858;2023-08-12T07:54:43;4.07;;;2.57;;
16822;SDS011;8528;49.976;11.858;2023-08-12T07:57:10;2.80;;;2.40;;
16822;SDS011;8528;49.976;11.858;2023-08-12T07:59:37;2.50;;;2.30;;
16822;SDS011;8528;49.976;11.858;2023-08-12T08:02:04;2.70;;;2.50;;
16822;SDS011;8528;49.976;11.858;2023-08-12T08:04:31;2.90;;;2.60;;
16822;SDS011;8528;49.976;11.858;2023-08-12T08:06:58;2.83;;;2.50;;
16822;SDS011;8528;49.976;11.858;2023-08-12T08:09:26;2.47;;;2.27;;
16822;SDS011;8528;49.976;11.858;2023-08-12T08:11:53;5.37;;;2.80;;
16822;SDS011;8528;49.976;11.858;2023-08-12T08:14:33;2.83;;;2.43;;
16822;SDS011;8528;49.976;11.858;2023-08-12T08:17:00;3.27;;;2.83;;
16822;SDS011;8528;49.976;11.858;2023-08-12T08:19:27;3.90;;;2.83;;
16822;SDS011;8528;49.976;11.858;2023-08-12T08:21:56;6.20;;;2.90;;
16822;SDS011;8528;49.976;11.858;2023-08-12T08:24:23;13.90;;;4.07;;
16822;SDS011;8528;49.976;11.858;2023-08-12T08:26:50;8.30;;;3.83;;
16822;SDS011;8528;49.976;11.858;2023-08-12T08:29:17;5.00;;;2.67;;
16822;SDS011;8528;49.976;11.858;2023-08-12T08:31:43;2.57;;;2.30;;
16822;SDS011;8528;49.976;11.858;2023-08-12T08:34:10;3.47;;;2.70;;
16822;SDS011;8528;49.976;11.858;2023-08-12T08:36:37;2.90;;;2.60;;
16822;SDS011;8528;49.976;11.858;2023-08-12T08:39:04;6.30;;;2.90;;
16822;SDS011;8528;49.976;11.858;2023-08-12T08:41:32;3.17;;;2.80;;
16822;SDS011;8528;49.976;11.858;2023-08-12T08:44:06;3.23;;;2.57;;
16822;SDS011;8528;49.976;11.858;2023-08-12T08:46:34;2.87;;;2.63;;
16822;SDS011;8528;49.976;11.858;2023-08-12T08:49:01;3.90;;;2.70;;
16822;SDS011;8528;49.976;11.858;2023-08-12T08:51:30;4.37;;;3.00;;
16822;SDS011;8528;49.976;11.858;2023-08-12T08:54:03;17.23;;;4.33;;
16822;SDS011;8528;49.976;11.858;2023-08-12T08:56:31;6.27;;;3.60;;
16822;SDS011;8528;49.976;11.858;2023-08-12T08:59:12;4.90;;;3.30;;
16822;SDS011;8528;49.976;11.858;2023-08-12T09:01:40;8.23;;;3.50;;
16822;SDS011;8528;49.976;11.858;2023-08-12T09:04:08;3.00;;;2.70;;
16822;SDS011;8528;49.976;11.858;2023-08-12T09:06:35;3.80;;;2.67;;
16822;SDS011;8528;49.976;11.858;2023-08-12T09:09:05;2.60;;;2.40;;
16822;SDS011;8528;49.976;11.858;2023-08-12T09:11:35;2.70;;;2.50;;
16822;SDS011;8528;49.976;11.858;2023-08-12T09:14:04;6.37;;;2.53;;
16822;SDS011;8528;49.976;11.858;2023-08-12T09:16:31;2.80;;;2.60;;
16822;SDS011;8528;49.976;11.858;2023-08-12T09:19:00;4.03;;;2.93;;
16822;SDS011;8528;49.976;11.858;2023-08-12T09:21:27;3.67;;;2.93;;
16822;SDS011;8528;49.976;11.858;2023-08-12T09:23:54;3.07;;;2.83;;
16822;SDS011;8528;49.976;11.858;2023-08-12T09:26:21;2.60;;;2.40;;
16822;SDS011;8528;49.976;11.858;2023-08-12T09:28:48;2.73;;;2.40;;
16822;SDS011;8528;49.976;11.858;2023-08-12T09:31:28;4.15;;;3.20;;
16822;SDS011;8528;49.976;11.858;2023-08-12T09:34:00;3.83;;;2.60;;
16822;SDS011;8528;49.976;11.858;2023-08-12T09:36:30;3.10;;;2.50;;
16822;SDS011;8528;49.976;11.858;2023-08-12T09:38:57;3.17;;;2.40;;
16822;SDS011;8528;49.976;11.858;2023-08-12T09:41:25;3.83;;;2.72;;
16822;SDS011;8528;49.976;11.858;2023-08-12T09:43:54;2.95;;;2.35;;
16822;SDS011;8528;49.976;11.858;2023-08-12T09:46:23;2.30;;;2.10;;
16822;SDS011;8528;49.976;11.858;2023-08-12T09:48:50;2.47;;;2.20;;
16822;SDS011;8528;49.976;11.858;2023-08-12T09:51:21;2.08;;;1.98;;
16822;SDS011;8528;49.976;11.858;2023-08-12T09:53:48;2.30;;;2.10;;
16822;SDS011;8528;49.976;11.858;2023-08-12T09:56:17;2.22;;;2.03;;
16822;SDS011;8528;49.976;11.858;2023-08-12T09:58:47;2.97;;;2.10;;
16822;SDS011;8528;49.976;11.858;2023-08-12T10:01:18;2.55;;;2.28;;
16822;SDS011;8528;49.976;11.858;2023-08-12T10:03:49;3.25;;;1.90;;
16822;SDS011;8528;49.976;11.858;2023-08-12T10:06:17;3.58;;;2.10;;
16822;SDS011;8528;49.976;11.858;2023-08-12T10:08:45;2.20;;;2.00;;
16822;SDS011;8528;49.976;11.858;2023-08-12T10:11:14;2.33;;;1.90;;
16822;SDS011;8528;49.976;11.858;2023-08-12T10:13:41;2.55;;;2.22;;
16822;SDS011;8528;49.976;11.858;2023-08-12T10:16:09;2.00;;;1.75;;
16822;SDS011;8528;49.976;11.858;2023-08-12T10:18:38;3.55;;;2.10;;
16822;SDS011;8528;49.976;11.858;2023-08-12T10:21:05;2.40;;;2.20;;
16822;SDS011;8528;49.976;11.858;2023-08-12T10:23:36;2.63;;;2.20;;
16822;SDS011;8528;49.976;11.858;2023-08-12T10:26:02;2.40;;;2.20;;
16822;SDS011;8528;49.976;11.858;2023-08-12T10:28:33;3.55;;;2.30;;
16822;SDS011;8528;49.976;11.858;2023-08-12T10:31:11;3.58;;;2.10;;
16822;SDS011;8528;49.976;11.858;2023-08-12T10:33:38;2.20;;;2.00;;
16822;SDS011;8528;49.976;11.858;2023-08-12T10:36:06;4.22;;;2.03;;
16822;SDS011;8528;49.976;11.858;2023-08-12T10:38:34;2.53;;;2.17;;
16822;SDS011;8528;49.976;11.858;2023-08-12T10:41:21;2.47;;;1.67;;
16822;SDS011;8528;49.976;11.858;2023-08-12T10:46:30;2.28;;;1.90;;
16822;SDS011;8528;49.976;11.858;2023-08-12T10:49:06;1.90;;;1.80;;
16822;SDS011;8528;49.976;11.858;2023-08-12T10:51:41;2.08;;;1.90;;
16822;SDS011;8528;49.976;11.858;2023-08-12T10:54:26;3.00;;;2.20;;
16822;SDS011;8528;49.976;11.858;2023-08-12T11:02:33;1.90;;;1.80;;
16822;SDS011;8528;49.976;11.858;2023-08-12T11:05:04;2.20;;;2.00;;
16822;SDS011;8528;49.976;11.858;2023-08-12T11:07:45;2.38;;;1.98;;
16822;SDS011;8528;49.976;11.858;2023-08-12T11:10:27;2.90;;;2.20;;
16822;SDS011;8528;49.976;11.858;2023-08-12T11:13:00;2.92;;;1.90;;
16822;SDS011;8528;49.976;11.858;2023-08-12T11:20:31;2.55;;;1.88;;
16822;SDS011;8528;49.976;11.858;2023-08-12T11:22:58;2.10;;;1.83;;
16822;SDS011;8528;49.976;11.858;2023-08-12T11:25:30;2.22;;;2.00;;
16822;SDS011;8528;49.976;11.858;2023-08-12T11:27:58;2.80;;;1.60;;
16822;SDS011;8528;49.976;11.858;2023-08-12T11:30:26;2.00;;;1.90;;
16822;SDS011;8528;49.976;11.858;2023-08-12T11:32:58;3.25;;;2.10;;
16822;SDS011;8528;49.976;11.858;2023-08-12T11:35:27;2.67;;;2.03;;
16822;SDS011;8528;49.976;11.858;2023-08-12T11:37:56;2.42;;;1.70;;
16822;SDS011;8528;49.976;11.858;2023-08-12T11:40:24;2.75;;;1.90;;
16822;SDS011;8528;49.976;11.858;2023-08-12T11:42:52;1.90;;;1.80;;
16822;SDS011;8528;49.976;11.858;2023-08-12T11:45:21;3.28;;;1.88;;
16822;SDS011;8528;49.976;11.858;2023-08-12T11:47:49;3.08;;;1.80;;
16822;SDS011;8528;49.976;11.858;2023-08-12T11:50:25;2.33;;;1.70;;
16822;SDS011;8528;49.976;11.858;2023-08-12T11:52:53;1.80;;;1.70;;
16822;SDS011;8528;49.976;11.858;2023-08-12T11:55:22;1.83;;;1.70;;
16822;SDS011;8528;49.976;11.858;2023-08-12T11:57:50;1.98;;;1.83;;
16822;SDS011;8528;49.976;11.858;2023-08-12T12:00:18;2.00;;;1.90;;
16822;SDS011;8528;49.976;11.858;2023-08-12T12:05:17;2.67;;;1.83;;
16822;SDS011;8528;49.976;11.858;2023-08-12T12:07:49;1.80;;;1.70;;
16822;SDS011;8528;49.976;11.858;2023-08-12T12:10:20;2.28;;;1.77;;
16822;SDS011;8528;49.976;11.858;2023-08-12T12:12:57;2.58;;;2.17;;
16822;SDS011;8528;49.976;11.858;2023-08-12T12:15:24;1.80;;;1.70;;
16822;SDS011;8528;49.976;11.858;2023-08-12T12:17:51;2.10;;;1.80;;
16822;SDS011;8528;49.976;11.858;2023-08-12T12:20:18;1.98;;;1.80;;
16822;SDS011;8528;49.976;11.858;2023-08-12T12:22:47;2.03;;;1.90;;
16822;SDS011;8528;49.976;11.858;2023-08-12T12:25:14;1.80;;;1.70;;
16822;SDS011;8528;49.976;11.858;2023-08-12T12:27:45;2.45;;;2.10;;
16822;SDS011;8528;49.976;11.858;2023-08-12T12:30:13;2.13;;;1.92;;
16822;SDS011;8528;49.976;11.858;2023-08-12T12:32:40;2.15;;;2.05;;
16822;SDS011;8528;49.976;11.858;2023-08-12T12:35:07;1.88;;;1.77;;
16822;SDS011;8528;49.976;11.858;2023-08-12T12:37:35;3.15;;;2.13;;
16822;SDS011;8528;49.976;11.858;2023-08-12T12:40:02;3.70;;;2.20;;
16822;SDS011;8528;49.976;11.858;2023-08-12T12:42:31;4.38;;;2.00;;
16822;SDS011;8528;49.976;11.858;2023-08-12T12:44:58;1.95;;;1.85;;
16822;SDS011;8528;49.976;11.858;2023-08-12T12:47:25;3.30;;;2.03;;
16822;SDS011;8528;49.976;11.858;2023-08-12T12:49:51;2.38;;;1.88;;
16822;SDS011;8528;49.976;11.858;2023-08-12T12:52:18;2.15;;;1.95;;
16822;SDS011;8528;49.976;11.858;2023-08-12T12:54:45;1.70;;;1.60;;
16822;SDS011;8528;49.976;11.858;2023-08-12T12:57:12;2.90;;;1.92;;
16822;SDS011;8528;49.976;11.858;2023-08-12T12:59:39;1.73;;;1.63;;
16822;SDS011;8528;49.976;11.858;2023-08-12T13:02:06;2.50;;;1.75;;
16822;SDS011;8528;49.976;11.858;2023-08-12T13:04:32;6.45;;;2.00;;
16822;SDS011;8528;49.976;11.858;2023-08-12T13:07:00;2.00;;;1.80;;
16822;SDS011;8528;49.976;11.858;2023-08-12T13:09:26;1.98;;;1.80;;
16822;SDS011;8528;49.976;11.858;2023-08-12T13:11:53;2.97;;;2.13;;
16822;SDS011;8528;49.976;11.858;2023-08-12T13:14:23;2.80;;;2.13;;
16822;SDS011;8528;49.976;11.858;2023-08-12T13:16:50;2.72;;;2.00;;
16822;SDS011;8528;49.976;11.858;2023-08-12T13:19:17;2.08;;;1.92;;
16822;SDS011;8528;49.976;11.858;2023-08-12T13:21:44;2.67;;;2.25;;
16822;SDS011;8528;49.976;11.858;2023-08-12T13:24:11;2.13;;;2.00;;
16822;SDS011;8528;49.976;11.858;2023-08-12T13:26:38;2.17;;;1.98;;
16822;SDS011;8528;49.976;11.858;2023-08-12T13:29:05;3.03;;;2.50;;
16822;SDS011;8528;49.976;11.858;2023-08-12T13:31:31;2.38;;;2.00;;
16822;SDS011;8528;49.976;11.858;2023-08-12T13:33:58;2.22;;;2.03;;
16822;SDS011;8528;49.976;11.858;2023-08-12T13:36:25;2.40;;;2.20;;
16822;SDS011;8528;49.976;11.858;2023-08-12T13:38:52;3.80;;;2.10;;
16822;SDS011;8528;49.976;11.858;2023-08-12T13:41:19;2.20;;;2.00;;
16822;SDS011;8528;49.976;11.858;2023-08-12T13:43:46;3.92;;;2.38;;
16822;SDS011;8528;49.976;11.858;2023-08-12T13:46:12;2.67;;;2.47;;
16822;SDS011;8528;49.976;11.858;2023-08-12T13:48:39;2.45;;;2.25;;
16822;SDS011;8528;49.976;11.858;2023-08-12T13:51:08;4.97;;;2.30;;
16822;SDS011;8528;49.976;11.858;2023-08-12T13:53:35;2.95;;;2.30;;
16822;SDS011;8528;49.976;11.858;2023-08-12T13:56:02;2.22;;;2.03;;
16822;SDS011;8528;49.976;11.858;2023-08-12T13:58:29;2.75;;;2.35;;
16822;SDS011;8528;49.976;11.858;2023-08-12T14:00:56;2.70;;;2.38;;
16822;SDS011;8528;49.976;11.858;2023-08-12T14:03:23;2.85;;;2.50;;
16822;SDS011;8528;49.976;11.858;2023-08-12T14:05:50;4.05;;;2.42;;
16822;SDS011;8528;49.976;11.858;2023-08-12T14:08:17;2.80;;;2.60;;
16822;SDS011;8528;49.976;11.858;2023-08-12T14:10:45;4.30;;;2.20;;
16822;SDS011;8528;49.976;11.858;2023-08-12T14:13:13;2.50;;;2.30;;
16822;SDS011;8528;49.976;11.858;2023-08-12T14:15:40;2.30;;;2.10;;
16822;SDS011;8528;49.976;11.858;2023-08-12T14:18:07;2.78;;;2.28;;
16822;SDS011;8528;49.976;11.858;2023-08-12T14:20:34;3.15;;;2.22;;
16822;SDS011;8528;49.976;11.858;2023-08-12T14:23:01;2.20;;;2.10;;
16822;SDS011;8528;49.976;11.858;2023-08-12T14:25:28;3.80;;;2.80;;
16822;SDS011;8528;49.976;11.858;2023-08-12T14:27:55;3.67;;;2.65;;
16822;SDS011;8528;49.976;11.858;2023-08-12T14:30:25;12.50;;;2.28;;
16822;SDS011;8528;49.976;11.858;2023-08-12T14:32:53;6.93;;;1.65;;
16822;SDS011;8528;49.976;11.858;2023-08-12T14:35:20;3.07;;;1.60;;
16822;SDS011;8528;49.976;11.858;2023-08-12T14:37:46;5.03;;;1.43;;
16822;SDS011;8528;49.976;11.858;2023-08-12T14:40:14;2.70;;;1.43;;
16822;SDS011;8528;49.976;11.858;2023-08-12T14:42:41;5.13;;;1.90;;
16822;SDS011;8528;49.976;11.858;2023-08-12T14:45:08;3.17;;;1.20;;
16822;SDS011;8528;49.976;11.858;2023-08-12T14:47:35;2.53;;;1.47;;
16822;SDS011;8528;49.976;11.858;2023-08-12T14:50:02;5.47;;;1.37;;
16822;SDS011;8528;49.976;11.858;2023-08-12T14:52:30;4.87;;;1.60;;
16822;SDS011;8528;49.976;11.858;2023-08-12T14:54:57;2.40;;;1.13;;
16822;SDS011;8528;49.976;11.858;2023-08-12T14:57:24;4.80;;;1.53;;
16822;SDS011;8528;49.976;11.858;2023-08-12T14:59:50;2.40;;;1.40;;
16822;SDS011;8528;49.976;11.858;2023-08-12T15:02:21;4.93;;;1.80;;
16822;SDS011;8528;49.976;11.858;2023-08-12T15:04:51;1.57;;;1.17;;
16822;SDS011;8528;49.976;11.858;2023-08-12T15:07:18;1.47;;;1.17;;
16822;SDS011;8528;49.976;11.858;2023-08-12T15:09:46;1.83;;;1.10;;